createdAt,value
2023-04-25T00:00:18.640Z,8.04
2023-04-25T00:02:45.424Z,8.02
2023-04-25T00:05:13.189Z,7.87
2023-04-25T00:07:53.599Z,7.82
2023-04-25T00:10:21.510Z,7.85
2023-04-25T00:12:48.846Z,7.75
2023-04-25T00:15:16.004Z,7.90
2023-04-25T00:17:43.525Z,7.83
2023-04-25T00:20:11.392Z,8.02
2023-04-25T00:22:38.534Z,7.91
2023-04-25T00:25:07.374Z,8.02
2023-04-25T00:27:34.122Z,8.03
2023-04-25T00:30:01.221Z,8.02
2023-04-25T00:32:28.003Z,8.04
2023-04-25T00:34:57.435Z,8.04
2023-04-25T00:37:24.154Z,8.16
2023-04-25T00:39:51.742Z,8.21
2023-04-25T00:42:18.696Z,8.24
2023-04-25T00:44:46.721Z,8.23
2023-04-25T00:47:14.676Z,8.26
2023-04-25T00:49:41.344Z,8.24
2023-04-25T00:52:08.325Z,8.27
2023-04-25T00:54:35.405Z,8.22
2023-04-25T00:57:02.615Z,8.31
2023-04-25T00:59:30.890Z,8.15
2023-04-25T01:01:58.113Z,8.17
2023-04-25T01:04:25.294Z,8.25
2023-04-25T01:06:52.893Z,8.29
2023-04-25T01:09:20.860Z,8.21
2023-04-25T01:11:47.619Z,8.35
2023-04-25T01:14:14.497Z,8.13
2023-04-25T01:16:41.211Z,8.21
2023-04-25T01:19:13.355Z,8.14
2023-04-25T01:21:41.040Z,8.15
2023-04-25T01:24:08.748Z,8.07
2023-04-25T01:26:36.439Z,8.07
2023-04-25T01:29:04.739Z,8.04
2023-04-25T01:31:33.464Z,8.03
2023-04-25T01:34:00.181Z,8.08
2023-04-25T01:36:28.144Z,8.03
2023-04-25T01:38:54.967Z,8.12
2023-04-25T01:41:24.411Z,8.12
2023-04-25T01:43:51.502Z,8.03
2023-04-25T01:46:18.495Z,7.96
2023-04-25T01:48:45.640Z,8.02
2023-04-25T01:51:12.694Z,8.04
2023-04-25T01:53:40.703Z,7.96
2023-04-25T01:56:07.896Z,7.93
2023-04-25T01:58:35.654Z,7.95
2023-04-25T02:01:02.654Z,7.99
2023-04-25T02:03:30.627Z,8.16
2023-04-25T02:05:57.284Z,8.10
2023-04-25T02:08:24.019Z,8.06
2023-04-25T02:10:51.295Z,7.97
2023-04-25T02:13:17.979Z,7.87
2023-04-25T02:15:45.030Z,8.04
2023-04-25T02:18:12.228Z,8.01
2023-04-25T02:20:39.309Z,8.09
2023-04-25T02:23:06.574Z,8.00
2023-04-25T02:25:33.391Z,8.05
2023-04-25T02:28:00.187Z,7.86
2023-04-25T02:30:26.867Z,7.88
2023-04-25T02:32:53.594Z,7.96
2023-04-25T02:35:20.701Z,7.98
2023-04-25T02:37:47.295Z,7.86
2023-04-25T02:40:14.557Z,7.76
2023-04-25T02:42:41.234Z,7.81
2023-04-25T02:45:08.462Z,7.81
2023-04-25T02:47:35.135Z,7.79
2023-04-25T02:50:01.889Z,7.73
2023-04-25T02:52:28.955Z,7.71
2023-04-25T02:54:55.579Z,7.83
2023-04-25T02:57:22.532Z,7.80
2023-04-25T02:59:49.337Z,7.80
2023-04-25T03:02:16.035Z,7.90
2023-04-25T03:04:42.847Z,7.70
2023-04-25T03:07:09.864Z,7.76
2023-04-25T03:09:36.590Z,7.68
2023-04-25T03:12:03.996Z,7.74
2023-04-25T03:14:30.854Z,7.77
2023-04-25T03:16:57.804Z,7.91
2023-04-25T03:19:24.502Z,7.79
2023-04-25T03:21:51.637Z,7.98
2023-04-25T03:24:18.262Z,7.81
2023-04-25T03:26:44.898Z,7.78
2023-04-25T03:29:11.535Z,7.80
2023-04-25T03:31:38.894Z,7.80
2023-04-25T03:34:05.808Z,7.74
2023-04-25T03:36:33.752Z,7.84
2023-04-25T03:39:00.599Z,7.86
2023-04-25T03:41:27.558Z,7.88
2023-04-25T03:43:54.147Z,7.82
2023-04-25T03:46:21.019Z,7.74
2023-04-25T03:48:47.675Z,7.56
2023-04-25T03:51:14.530Z,7.92
2023-04-25T03:53:41.085Z,7.78
2023-04-25T03:56:07.994Z,7.64
2023-04-25T03:58:34.802Z,7.70
2023-04-25T04:01:04.114Z,7.84
2023-04-25T04:03:31.190Z,7.74
2023-04-25T04:05:58.818Z,7.64
2023-04-25T04:08:25.802Z,7.75
2023-04-25T04:10:52.413Z,7.71
2023-04-25T04:13:18.970Z,7.65
2023-04-25T04:15:45.958Z,7.65
2023-04-25T04:18:12.571Z,7.71
2023-04-25T04:20:39.214Z,7.65
2023-04-25T04:23:06.540Z,7.63
2023-04-25T04:25:33.236Z,7.64
2023-04-25T04:28:00.130Z,7.65
2023-04-25T04:30:26.787Z,7.56
2023-04-25T04:32:53.576Z,7.59
2023-04-25T04:35:20.446Z,7.61
2023-04-25T04:37:47.032Z,7.76
2023-04-25T04:40:16.491Z,7.83
2023-04-25T04:42:43.867Z,7.75
2023-04-25T04:45:11.326Z,7.62
2023-04-25T04:47:38.558Z,7.78
2023-04-25T04:50:05.432Z,7.76
2023-04-25T04:52:32.048Z,7.94
2023-04-25T04:54:58.653Z,7.99
2023-04-25T04:57:25.827Z,8.03
2023-04-25T04:59:52.574Z,8.02
2023-04-25T05:02:19.246Z,7.98
2023-04-25T05:04:46.159Z,8.01
2023-04-25T05:07:12.808Z,7.96
2023-04-25T05:09:39.428Z,8.15
2023-04-25T05:12:06.357Z,8.12
2023-04-25T05:14:33.024Z,8.08
2023-04-25T05:16:59.743Z,8.17
2023-04-25T05:19:26.420Z,8.04
2023-04-25T05:21:53.471Z,8.21
2023-04-25T05:24:20.081Z,8.27
2023-04-25T05:26:46.697Z,8.33
2023-04-25T05:29:13.328Z,8.12
2023-04-25T05:31:39.974Z,8.25
2023-04-25T05:34:06.699Z,8.12
2023-04-25T05:36:33.804Z,8.21
2023-04-25T05:39:00.506Z,8.20
2023-04-25T05:41:27.098Z,8.23
2023-04-25T05:43:56.251Z,8.23
2023-04-25T05:46:24.482Z,8.27
2023-04-25T05:48:51.192Z,8.31
2023-04-25T05:51:19.474Z,8.35
2023-04-25T05:53:46.270Z,8.47
2023-04-25T05:56:12.877Z,8.24
2023-04-25T05:58:39.793Z,8.33
2023-04-25T06:01:06.464Z,8.38
2023-04-25T06:03:33.314Z,8.40
2023-04-25T06:06:00.078Z,8.57
2023-04-25T06:08:26.726Z,8.55
2023-04-25T06:10:53.371Z,8.64
2023-04-25T06:13:20.002Z,8.56
2023-04-25T06:15:46.604Z,8.75
2023-04-25T06:18:13.321Z,8.62
2023-04-25T06:20:41.422Z,8.46
2023-04-25T06:23:08.224Z,8.79
2023-04-25T06:25:34.834Z,8.73
2023-04-25T06:28:01.600Z,8.72
2023-04-25T06:30:28.343Z,8.84
2023-04-25T06:32:55.046Z,8.91
2023-04-25T06:35:22.075Z,8.83
2023-04-25T06:37:48.799Z,8.81
2023-04-25T06:40:15.956Z,8.74
2023-04-25T06:42:42.663Z,8.74
2023-04-25T06:45:09.592Z,8.62
2023-04-25T06:47:36.282Z,8.59
2023-04-25T06:50:03.420Z,8.62
2023-04-25T06:52:30.036Z,8.79
2023-04-25T06:54:56.583Z,8.66
2023-04-25T06:57:23.144Z,8.73
2023-04-25T06:59:49.730Z,8.79
2023-04-25T07:02:16.364Z,8.82
2023-04-25T07:04:43.149Z,8.92
2023-04-25T07:07:09.904Z,8.87
2023-04-25T07:09:36.540Z,8.68
2023-04-25T07:12:03.785Z,8.57
2023-04-25T07:14:30.424Z,8.41
2023-04-25T07:16:58.054Z,8.19
2023-04-25T07:19:30.690Z,8.11
2023-04-25T07:21:57.314Z,8.07
2023-04-25T07:24:23.892Z,8.12
2023-04-25T07:26:51.024Z,7.97
2023-04-25T07:29:17.694Z,8.09
2023-04-25T07:31:44.326Z,8.32
2023-04-25T07:34:11.113Z,8.39
2023-04-25T07:36:37.668Z,8.33
2023-04-25T07:39:04.333Z,8.21
2023-04-25T07:41:30.944Z,7.89
2023-04-25T07:43:57.522Z,8.23
2023-04-25T07:46:24.336Z,8.32
2023-04-25T07:48:51.208Z,8.20
2023-04-25T07:51:18.060Z,8.28
2023-04-25T07:53:44.688Z,8.30
2023-04-25T07:56:11.266Z,8.44
2023-04-25T07:58:37.870Z,8.52
2023-04-25T08:01:04.749Z,8.64
2023-04-25T08:03:31.624Z,8.74
2023-04-25T08:05:58.608Z,8.77
2023-04-25T08:08:26.023Z,8.89
2023-04-25T08:10:52.624Z,8.79
2023-04-25T08:13:19.213Z,8.84
2023-04-25T08:15:46.001Z,8.80
2023-04-25T08:18:12.778Z,9.03
2023-04-25T08:20:40.007Z,9.23
2023-04-25T08:23:06.624Z,9.33
2023-04-25T08:25:33.209Z,9.65
2023-04-25T08:28:00.670Z,9.75
2023-04-25T08:30:28.164Z,9.85
2023-04-25T08:32:54.855Z,9.56
2023-04-25T08:35:21.888Z,9.37
2023-04-25T08:37:50.168Z,9.55
2023-04-25T08:40:17.014Z,9.64
2023-04-25T08:42:43.915Z,9.54
2023-04-25T08:45:11.335Z,9.63
2023-04-25T08:47:40.857Z,9.47
2023-04-25T08:50:08.375Z,9.69
2023-04-25T08:52:44.838Z,9.79
2023-04-25T08:55:13.755Z,10.43
2023-04-25T08:57:43.853Z,10.86
2023-04-25T09:00:13.338Z,11.25
2023-04-25T09:02:40.520Z,11.10
2023-04-25T09:05:07.819Z,11.19
2023-04-25T09:07:34.786Z,11.24
2023-04-25T09:10:03.431Z,11.70
2023-04-25T09:12:31.732Z,11.88
2023-04-25T09:15:10.142Z,12.12
2023-04-25T09:17:41.375Z,12.60
2023-04-25T09:20:12.871Z,12.30
2023-04-25T09:22:39.957Z,12.34
2023-04-25T09:25:11.791Z,12.07
2023-04-25T09:27:51.692Z,12.89
2023-04-25T09:30:18.459Z,12.27
2023-04-25T09:32:46.347Z,12.38
2023-04-25T09:35:24.780Z,12.32
2023-04-25T09:37:51.740Z,12.02
2023-04-25T09:40:19.444Z,11.74
2023-04-25T09:42:46.094Z,11.49
2023-04-25T09:45:16.595Z,11.39
2023-04-25T09:47:45.106Z,11.07
2023-04-25T09:50:16.982Z,10.72
2023-04-25T09:52:44.129Z,10.85
2023-04-25T09:55:10.794Z,10.81
2023-04-25T09:57:40.840Z,10.74
2023-04-25T10:00:12.164Z,10.83
2023-04-25T10:02:41.194Z,10.95
2023-04-25T10:05:09.633Z,10.74
2023-04-25T10:07:39.257Z,10.87
2023-04-25T10:10:07.104Z,10.83
2023-04-25T10:12:34.688Z,10.95
2023-04-25T10:15:02.465Z,11.09
2023-04-25T10:17:29.527Z,11.03
2023-04-25T10:19:56.558Z,10.57
2023-04-25T10:22:36.991Z,10.66
2023-04-25T10:25:05.294Z,10.74
2023-04-25T10:27:32.786Z,11.16
2023-04-25T10:30:16.315Z,11.42
2023-04-25T10:32:44.169Z,11.44
2023-04-25T10:35:19.364Z,11.38
2023-04-25T10:38:03.920Z,11.95
2023-04-25T10:40:31.051Z,11.51
2023-04-25T10:43:32.732Z,11.60
2023-04-25T10:46:03.519Z,11.35
2023-04-25T10:48:31.610Z,11.13
2023-04-25T10:51:10.979Z,11.32
2023-04-25T10:53:38.189Z,11.07
2023-04-25T10:56:32.648Z,10.93
2023-04-25T10:59:08.429Z,10.70
2023-04-25T11:01:43.120Z,10.75
2023-04-25T11:04:33.108Z,10.82
2023-04-25T11:09:52.651Z,10.59
2023-04-25T11:12:19.384Z,10.68
2023-04-25T11:14:46.701Z,10.31
2023-04-25T11:17:13.375Z,10.22
2023-04-25T11:19:40.055Z,10.29
2023-04-25T11:22:07.829Z,10.40
2023-04-25T11:24:36.136Z,10.20
2023-04-25T11:27:04.067Z,10.02
2023-04-25T11:29:32.131Z,9.97
2023-04-25T11:31:59.473Z,9.75
2023-04-25T11:34:27.071Z,9.65
2023-04-25T11:36:54.612Z,9.65
2023-04-25T11:39:22.409Z,9.71
2023-04-25T11:41:49.072Z,9.93
2023-04-25T11:44:20.086Z,10.32
2023-04-25T11:46:47.613Z,10.54
2023-04-25T11:49:15.878Z,10.78
2023-04-25T11:51:49.554Z,10.78
2023-04-25T11:54:16.700Z,10.76
2023-04-25T11:56:44.510Z,10.67
2023-04-25T11:59:11.607Z,10.72
2023-04-25T12:01:41.036Z,10.44
2023-04-25T12:04:14.982Z,10.25
2023-04-25T12:06:43.499Z,10.05
2023-04-25T12:09:12.336Z,10.35
2023-04-25T12:12:04.137Z,10.50
2023-04-25T12:14:33.379Z,10.72
2023-04-25T12:17:02.149Z,10.68
2023-04-25T12:19:36.779Z,10.78
2023-04-25T12:22:04.952Z,10.87
2023-04-25T12:24:38.723Z,10.88
2023-04-25T12:27:09.354Z,10.88
2023-04-25T12:29:48.581Z,10.94
2023-04-25T12:32:16.631Z,11.00
2023-04-25T12:34:43.618Z,11.29
2023-04-25T12:37:10.500Z,11.61
2023-04-25T12:39:37.397Z,11.43
2023-04-25T12:42:06.167Z,11.04
2023-04-25T12:44:35.170Z,10.85
2023-04-25T12:47:02.227Z,10.75
2023-04-25T12:49:28.935Z,10.31
2023-04-25T12:51:55.667Z,10.26
2023-04-25T12:54:22.349Z,10.19
2023-04-25T12:56:48.990Z,10.41
2023-04-25T12:59:15.575Z,10.60
2023-04-25T13:01:42.319Z,10.63
2023-04-25T13:04:09.077Z,10.50
2023-04-25T13:06:35.939Z,10.60
2023-04-25T13:09:02.877Z,10.54
2023-04-25T13:13:57.027Z,11.00
2023-04-25T13:16:23.708Z,11.25
2023-04-25T13:18:50.323Z,11.80
2023-04-25T13:21:17.094Z,11.34
2023-04-25T13:23:44.089Z,11.95
2023-04-25T13:26:11.277Z,11.86
2023-04-25T13:28:37.932Z,11.64
2023-04-25T13:31:04.520Z,11.53
2023-04-25T13:33:31.266Z,11.78
2023-04-25T13:35:58.521Z,12.19
2023-04-25T13:38:26.683Z,12.37
2023-04-25T13:40:54.367Z,11.72
2023-04-25T13:43:22.894Z,11.49
2023-04-25T13:45:51.046Z,11.10
2023-04-25T13:48:18.743Z,10.80
2023-04-25T13:50:46.122Z,10.46
2023-04-25T13:53:13.098Z,10.42
2023-04-25T13:55:39.906Z,10.31
2023-04-25T13:58:11.045Z,10.10
2023-04-25T14:00:40.230Z,10.12
2023-04-25T14:03:09.000Z,10.01
2023-04-25T14:05:40.217Z,10.04
2023-04-25T14:08:08.212Z,9.76
2023-04-25T14:10:35.708Z,9.97
2023-04-25T14:13:04.159Z,9.72
2023-04-25T14:15:33.609Z,9.72
2023-04-25T14:18:01.294Z,9.63
2023-04-25T14:20:28.303Z,9.48
2023-04-25T14:22:57.041Z,9.56
2023-04-25T14:25:24.341Z,9.41
2023-04-25T14:27:51.128Z,9.32
2023-04-25T14:30:19.198Z,9.37
2023-04-25T14:32:46.634Z,9.38
2023-04-25T14:35:13.657Z,9.42
2023-04-25T14:37:40.532Z,9.69
2023-04-25T14:40:09.787Z,9.89
2023-04-25T14:42:36.645Z,10.10
2023-04-25T14:45:08.377Z,10.08
2023-04-25T14:47:37.085Z,10.10
2023-04-25T14:50:04.246Z,10.24
2023-04-25T14:52:31.650Z,10.21
2023-04-25T14:54:58.304Z,10.01
2023-04-25T14:57:24.935Z,9.96
2023-04-25T14:59:51.703Z,10.03
2023-04-25T15:02:18.680Z,9.87
2023-04-25T15:04:45.493Z,9.84
2023-04-25T15:07:12.166Z,9.88
2023-04-25T15:09:38.728Z,9.65
2023-04-25T15:12:05.547Z,9.98
2023-04-25T15:14:32.263Z,9.99
2023-04-25T15:16:58.962Z,9.97
2023-04-25T15:19:25.880Z,9.90
2023-04-25T15:21:52.655Z,10.03
2023-04-25T15:24:19.455Z,10.11
2023-04-25T15:26:46.974Z,10.12
2023-04-25T15:29:13.570Z,10.13
2023-04-25T15:31:40.294Z,10.24
2023-04-25T15:34:07.105Z,10.46
2023-04-25T15:36:33.697Z,10.43
2023-04-25T15:39:00.306Z,10.19
2023-04-25T15:41:26.993Z,10.03
2023-04-25T15:43:54.869Z,10.18
2023-04-25T15:46:24.510Z,10.16
2023-04-25T15:48:51.148Z,10.24
2023-04-25T15:51:17.746Z,10.05
2023-04-25T15:53:44.414Z,9.89
2023-04-25T15:56:11.294Z,9.89
2023-04-25T15:58:38.093Z,9.72
2023-04-25T16:01:05.180Z,9.59
2023-04-25T16:03:34.502Z,9.55
2023-04-25T16:06:03.251Z,9.45
2023-04-25T16:08:30.013Z,9.43
2023-04-25T16:10:57.417Z,9.41
2023-04-25T16:13:24.057Z,9.32
2023-04-25T16:15:50.835Z,9.36
2023-04-25T16:18:17.928Z,9.56
2023-04-25T16:20:44.996Z,9.45
2023-04-25T16:23:11.790Z,9.31
2023-04-25T16:25:38.539Z,9.32
2023-04-25T16:28:05.521Z,9.32
2023-04-25T16:30:32.291Z,9.16
2023-04-25T16:32:59.035Z,9.21
2023-04-25T16:35:25.828Z,9.07
2023-04-25T16:37:52.443Z,8.96
2023-04-25T16:40:19.175Z,8.92
2023-04-25T16:42:46.209Z,8.81
2023-04-25T16:45:14.124Z,8.63
2023-04-25T16:47:40.850Z,8.65
2023-04-25T16:50:08.378Z,8.75
2023-04-25T16:52:34.963Z,8.79
2023-04-25T16:55:01.571Z,8.72
2023-04-25T16:57:28.234Z,8.82
2023-04-25T16:59:54.824Z,8.95
2023-04-25T17:02:21.522Z,9.03
2023-04-25T17:04:48.196Z,9.22
2023-04-25T17:07:15.968Z,9.07
2023-04-25T17:09:42.643Z,8.93
2023-04-25T17:12:09.335Z,9.00
2023-04-25T17:14:37.182Z,8.92
2023-04-25T17:17:03.991Z,8.95
2023-04-25T17:19:31.725Z,9.00
2023-04-25T17:21:58.503Z,9.05
2023-04-25T17:24:25.212Z,9.09
2023-04-25T17:26:51.938Z,8.92
2023-04-25T17:29:19.312Z,8.85
2023-04-25T17:31:46.423Z,8.87
2023-04-25T17:34:17.926Z,8.81
2023-04-25T17:36:45.468Z,8.74
2023-04-25T17:39:12.130Z,8.64
2023-04-25T17:41:38.763Z,8.47
2023-04-25T17:44:05.514Z,8.42
2023-04-25T17:46:32.368Z,8.20
2023-04-25T17:48:58.989Z,8.11
2023-04-25T17:51:26.423Z,7.97
2023-04-25T17:53:53.104Z,8.05
2023-04-25T17:56:27.181Z,8.13
2023-04-25T17:58:54.678Z,7.97
2023-04-25T18:01:21.799Z,8.08
2023-04-25T18:03:49.919Z,7.95
2023-04-25T18:06:18.435Z,7.89
2023-04-25T18:08:45.482Z,7.97
2023-04-25T18:11:12.340Z,8.05
2023-04-25T18:13:39.781Z,8.06
2023-04-25T18:16:07.104Z,7.94
2023-04-25T18:18:36.109Z,7.96
2023-04-25T18:21:05.375Z,8.02
2023-04-25T18:23:34.195Z,8.03
2023-04-25T18:26:04.789Z,8.02
2023-04-25T18:28:34.377Z,8.02
2023-04-25T18:31:01.364Z,8.19
2023-04-25T18:33:27.973Z,8.07
2023-04-25T18:35:59.380Z,8.02
2023-04-25T18:41:02.775Z,8.04
2023-04-25T18:43:37.076Z,7.88
2023-04-25T18:46:03.767Z,7.89
2023-04-25T18:48:30.795Z,7.98
2023-04-25T18:50:57.767Z,7.80
2023-04-25T18:53:24.395Z,7.93
2023-04-25T18:55:51.212Z,8.01
2023-04-25T18:58:17.808Z,7.95
2023-04-25T19:00:44.398Z,7.91
2023-04-25T19:03:11.125Z,7.90
2023-04-25T19:05:38.189Z,7.79
2023-04-25T19:08:05.121Z,7.70
2023-04-25T19:10:31.875Z,7.71
2023-04-25T19:12:58.476Z,7.76
2023-04-25T19:15:25.192Z,7.69
2023-04-25T19:17:52.318Z,7.51
2023-04-25T19:20:20.762Z,7.46
2023-04-25T19:22:48.365Z,7.41
2023-04-25T19:25:15.163Z,7.28
2023-04-25T19:27:42.319Z,7.12
2023-04-25T19:30:10.176Z,7.26
2023-04-25T19:32:38.431Z,7.14
2023-04-25T19:35:05.514Z,7.00
2023-04-25T19:37:32.202Z,7.06
2023-04-25T19:39:58.843Z,7.02
2023-04-25T19:42:26.038Z,7.09
2023-04-25T19:44:52.767Z,7.02
2023-04-25T19:47:19.406Z,6.90
2023-04-25T19:49:46.061Z,6.87
2023-04-25T19:52:16.307Z,6.78
2023-04-25T19:54:43.064Z,6.77
2023-04-25T19:57:09.613Z,6.70
2023-04-25T19:59:36.389Z,6.63
2023-04-25T20:02:06.240Z,6.56
2023-04-25T20:04:33.383Z,6.47
2023-04-25T20:07:00.754Z,6.50
2023-04-25T20:09:27.492Z,6.36
2023-04-25T20:11:54.373Z,6.33
2023-04-25T20:14:21.823Z,6.26
2023-04-25T20:16:48.428Z,6.19
2023-04-25T20:19:15.044Z,6.19
2023-04-25T20:21:41.843Z,6.14
2023-04-25T20:24:08.657Z,6.06
2023-04-25T20:26:35.663Z,5.99
2023-04-25T20:29:02.288Z,5.89
2023-04-25T20:31:29.932Z,5.78
2023-04-25T20:33:56.621Z,5.77
2023-04-25T20:36:23.537Z,5.65
2023-04-25T20:38:50.349Z,5.56
2023-04-25T20:41:17.162Z,5.42
2023-04-25T20:43:43.866Z,5.37
2023-04-25T20:46:10.636Z,5.30
2023-04-25T20:48:37.389Z,5.24
2023-04-25T20:51:04.136Z,5.31
2023-04-25T20:53:30.736Z,5.35
2023-04-25T20:55:57.537Z,5.55
2023-04-25T20:58:25.131Z,5.58
2023-04-25T21:00:51.919Z,5.70
2023-04-25T21:03:18.774Z,5.73
2023-04-25T21:05:46.546Z,5.77
2023-04-25T21:08:13.383Z,5.81
2023-04-25T21:10:40.141Z,5.82
2023-04-25T21:13:06.912Z,5.85
2023-04-25T21:15:33.704Z,5.93
2023-04-25T21:18:00.500Z,6.05
2023-04-25T21:20:27.227Z,6.02
2023-04-25T21:22:54.525Z,6.25
2023-04-25T21:25:25.478Z,6.29
2023-04-25T21:27:52.889Z,6.38
2023-04-25T21:30:23.607Z,6.17
2023-04-25T21:32:51.959Z,6.03
2023-04-25T21:35:20.820Z,6.07
2023-04-25T21:37:47.747Z,6.05
2023-04-25T21:40:14.936Z,6.05
2023-04-25T21:42:45.989Z,6.06
2023-04-25T21:45:13.184Z,5.97
2023-04-25T21:47:39.796Z,5.83
2023-04-25T21:50:07.536Z,5.84
2023-04-25T21:52:35.695Z,5.73
2023-04-25T21:55:02.341Z,5.76
2023-04-25T21:57:29.233Z,5.81
2023-04-25T21:59:56.662Z,5.65
2023-04-25T22:02:23.881Z,5.65
2023-04-25T22:04:51.513Z,5.70
2023-04-25T22:07:18.297Z,5.73
2023-04-25T22:09:54.386Z,5.65
2023-04-25T22:12:22.760Z,5.66
2023-04-25T22:14:50.284Z,5.69
2023-04-25T22:17:20.123Z,5.61
2023-04-25T22:19:47.163Z,5.54
2023-04-25T22:22:14.251Z,5.63
2023-04-25T22:24:41.010Z,5.60
2023-04-25T22:27:07.951Z,5.51
2023-04-25T22:29:35.165Z,5.44
2023-04-25T22:32:02.139Z,5.41
2023-04-25T22:34:28.835Z,5.45
2023-04-25T22:36:55.800Z,5.37
2023-04-25T22:39:23.273Z,5.18
2023-04-25T22:41:49.924Z,5.10
2023-04-25T22:44:16.626Z,5.06
2023-04-25T22:46:43.301Z,5.08
2023-04-25T22:49:10.735Z,5.08
2023-04-25T22:51:37.960Z,5.14
2023-04-25T22:54:05.544Z,5.12
2023-04-25T22:56:35.796Z,5.01
2023-04-25T22:59:02.347Z,5.03
2023-04-25T23:01:29.275Z,5.00
2023-04-25T23:03:56.684Z,4.95
2023-04-25T23:06:24.744Z,4.96
2023-04-25T23:08:51.518Z,4.89
2023-04-25T23:11:18.262Z,4.86
2023-04-25T23:13:45.515Z,4.90
2023-04-25T23:16:12.615Z,4.69
2023-04-25T23:18:40.383Z,4.74
2023-04-25T23:21:09.201Z,4.61
2023-04-25T23:23:36.536Z,4.55
2023-04-25T23:26:10.855Z,4.58
2023-04-25T23:28:40.646Z,4.54
2023-04-25T23:31:10.567Z,4.50
2023-04-25T23:33:37.358Z,4.48
2023-04-25T23:36:04.587Z,4.41
2023-04-25T23:38:32.388Z,4.49
2023-04-25T23:40:59.009Z,4.39
2023-04-25T23:43:25.686Z,4.45
2023-04-25T23:45:54.237Z,4.34
2023-04-25T23:48:21.218Z,4.45
2023-04-25T23:50:48.161Z,4.23
2023-04-25T23:53:14.773Z,4.31
2023-04-25T23:55:41.595Z,4.12
2023-04-25T23:58:08.338Z,4.06
